Camano Island, Washington
Current Conditions -  °F | °C
As of 7:56 PM on Sunday 23 Nov 2014 (Local Time) from KNUW Reporting Station
Few Clouds Few Clouds  
Wind Chill: 51°   Ceiling: Unl
Heat Index: 51°   Visibility: 10mi
Dew Point: 43°   Wind: 12mph
Humidity: 74%   Direction: 280°W
Pressure: 30.26"   Gusts: NA
Location:  48.16°N, 122.49°W
Report Text: KNUW 240356Z 28010KT 10SM FEW040 11/06 A3026 RMK AO2 SLP249 T01060061 $
Loading
Personal Weather Stations






























Interactive Weather Map New forecast layout! Learn more

10-Day Weather Forecast

Advertisements
Track Severe Weather on mobile